Safdarjung Airport

VIDD · Delhi, India

METAR history VIDD · Safdarjung Airport

Below you see METARs of the last few days. Select a year to browse through older METARs, from the year 2007 onwards.

July 13, 2024

Time Code Weather Temp. Visibility Ceiling Wind METAR/SPECI
12:00
I
33 °C 4.5 km - 070° 070° 2 kt METAR VIDD 130630Z 07002KT 4500 HZ FEW035 SCT100 33/26 Q0999 NOSIG
Report a change